Tikaboo Peak, Nevada Weather observations

Data are for 10 minute period ending at time listed.
 Day   Time   Solar   Ave.   Ave.  Ave.  Vector  Max.   Baro.   Total    
  of    of     Rad.   Air    Rel.  Wind   Wind   Wind  Press.  Precip.   
Year   Day            Temp.  Hum.  Speed  Dir.   Gust                    
2017   (PST)  Kw/m2    F      %     mph   deg.    mph    mb.     in.     
-------------------------------------------------------------------------
  17   18:10   0.00   28.0    45    6.6    93     8.6   761.9    0.00 
  17   18:20   0.00   27.4    35    9.1   105    11.5   761.9    0.00 
  17   18:30   0.00   28.3    27    9.7   102    11.8   761.8    0.00 
  17   18:40   0.00   28.8    24    9.1    98    10.4   761.8    0.00 
  17   18:50   0.00   28.9    24    7.5    99     8.9   761.8    0.00 
  17   19:00   0.00   29.1    26    6.4   104     8.0   761.9    0.00 
  17   19:10   0.00   29.8    24    4.1   107     5.3   761.7    0.00 
  17   19:20   0.00   30.9    18    2.2   150     3.4   761.7    0.00 
  17   19:30   0.00   32.9    13    0.7   236     1.7   761.7    0.00 
  17   19:40   0.00   33.4    13    3.9   229     5.8   761.6    0.00 
  17   19:50   0.00   34.1    12    5.2   243     7.3   761.5    0.00 
  17   20:00   0.00   34.4    11    6.1   244     7.3   761.7    0.00 
  17   20:10   0.00   34.0    12    4.5   232     5.6   761.7    0.00 
  17   20:20   0.00   33.6    13    6.7   231     7.5   761.7    0.00 
  17   20:30   0.00   33.8    12    7.7   228     8.3   761.6    0.00 
  17   20:40   0.00   33.9    13    6.7   227     8.3   761.6    0.00 
  17   20:50   0.00   34.3    11    5.3   256     6.9   761.8    0.00 
  17   21:00   0.00   34.7    10    5.1   261     6.9   761.8    0.00 
  17   21:10   0.00   34.1    11    3.2   276     4.8   761.9    0.00 
  17   21:20   0.00   33.4    13    0.6    14     2.0   761.9    0.00 
  17   21:30   0.00   33.0    13    0.7   300     2.6   761.9    0.00 
  17   21:40   0.00   33.4    12    4.7   264     5.8   761.9    0.00 
  17   21:50   0.00   33.3    13    5.1   268     5.9   761.9    0.00 
  17   22:00   0.00   33.7    12    5.4   294     7.1   761.9    0.00 
  17   22:10   0.00   34.3    12    5.8   318     6.8   761.9    0.00 
  17   22:20   0.00   34.5    12    7.3   328     8.3   761.9    0.00 
  17   22:30   0.00   34.3    12    8.3   339     9.3   761.8    0.00 
  17   22:40   0.00   33.8    13    7.5   336     9.3   761.7    0.00 
  17   22:50   0.00   33.8    13    6.1   321     8.1   761.7    0.00 
  17   23:00   0.00   33.5    12    5.8   302     6.9   761.7    0.00 
  17   23:10   0.00   33.1    13    5.0   300     6.5   761.5    0.00 
  17   23:20   0.00   33.2    12    4.2   318     5.3   761.4    0.00 
  17   23:30   0.00   34.0    12    4.0   338     5.2   761.5    0.00 
  17   23:40   0.00   33.7    12    4.1     2     5.3   761.3    0.00 
  17   23:50   0.00   33.1    12    4.4   344     6.0   761.4    0.00 
  18    0:00   0.00   34.0    12    4.9   340     6.0   761.3    0.00 
  18    0:10   0.00   32.8    13    4.0    23     5.4   761.4    0.00 
  18    0:20   0.00   32.9    13    3.8     2     5.0   761.2    0.00 
  18    0:30   0.00   32.0    15    4.4    26     5.8   761.2    0.00 
  18    0:40   0.00   31.0    17    5.4    37     7.3   761.2    0.00 
  18    0:50   0.00   30.6    17    5.9    26     7.5   761.1    0.00 
  18    1:00   0.00   30.4    18    7.0    26     8.6   761.2    0.00 
  18    1:10   0.00   29.8    20    7.4    28     8.2   761.1    0.00 
  18    1:20   0.00   29.4    22    9.0    33    10.2   761.1    0.00 
  18    1:30   0.00   28.7    25    9.7    30    10.8   761.1    0.00 
  18    1:40   0.00   29.0    26   10.3    15    13.7   761.1    0.00 
  18    1:50   0.00   30.0    21   11.8    12    13.9   761.0    0.00 
  18    2:00   0.00   30.6    18   12.7    11    14.3   761.1    0.00 
  18    2:10   0.00   31.3    16   12.9     8    15.0   761.0    0.00 
  18    2:20   0.00   31.3    18   12.1     8    15.4   760.9    0.00 
  18    2:30   0.00   31.1    17   14.2    11    15.9   760.8    0.00 
  18    2:40   0.00   31.2    18   15.1    20    17.0   760.7    0.00 
  18    2:50   0.00   31.6    16   15.0    26    17.1   760.6    0.00 
  18    3:00   0.00   31.6    16   14.0    24    17.1   760.7    0.00 
  18    3:10   0.00   31.5    17   16.0    26    17.2   760.5    0.00 
  18    3:20   0.00   31.2    18   16.4    27    18.2   760.5    0.00 
  18    3:30   0.00   31.0    18   16.0    27    17.2   760.3    0.00 
  18    3:40   0.00   31.0    18   16.8    28    18.3   760.3    0.00 
  18    3:50   0.00   30.9    19   16.1    28    17.4   760.2    0.00 
  18    4:00   0.00   30.7    20   17.0    30    18.2   760.4    0.00 
  18    4:10   0.00   30.8    18   15.5    30    17.8   760.3    0.00 
  18    4:20   0.00   31.0    18   15.5    32    16.4   760.3    0.00 
  18    4:30   0.00   31.2    16   15.0    27    17.2   760.2    0.00 
  18    4:40   0.00   31.1    17   14.7    24    17.0   760.2    0.00 
  18    4:50   0.00   31.5    16   15.8    21    17.4   760.2    0.00 
  18    5:00   0.00   31.0    19   14.7    21    16.6   760.4    0.00 
  18    5:10   0.00   30.5    21   14.7    20    15.9   760.3    0.00 
  18    5:20   0.00   29.9    24   16.3    23    18.3   760.3    0.00 
  18    5:30   0.00   29.6    24   17.3    25    19.4   760.3    0.00 
  18    5:40   0.00   29.2    25   17.6    30    19.9   760.4    0.00 
  18    5:50   0.00   29.3    25   17.5    24    19.4   760.4    0.00 
  18    6:00   0.00   29.2    26   15.6    16    18.1   760.5    0.00 
  18    6:10   0.00   29.2    27   16.2    16    19.1   760.4    0.00 
  18    6:20   0.00   28.9    27   16.5    20    18.0   760.3    0.00 
  18    6:30   0.00   29.0    26   18.0    14    21.0   760.2    0.00 
  18    6:40   0.00   29.1    26   18.1    22    20.6   760.2    0.00 
  18    6:50   0.00   29.5    23   18.2    25    21.1   760.1    0.00 
  18    7:00   0.04   29.7    23   17.0    30    20.5   760.2    0.00 
  18    7:10   0.07   30.2    22   17.2    30    21.5   760.2    0.00 
  18    7:20   0.11   31.3    20   17.9    24    21.9   760.1    0.00 
  18    7:30   0.14   32.4    19   17.6    27    21.9   760.1    0.00 
  18    7:40   0.17   34.2    17   17.2    28    20.6   760.1    0.00 
  18    7:50   0.20   35.6    16   17.3    26    20.4   760.2    0.00 
  18    8:00   0.24   36.7    15   15.9    20    18.6   760.8    0.00 
  18    8:10   0.27   36.7    15   15.7    10    17.0   760.9    0.00 
  18    8:20   0.30   37.2    14   15.0     5    16.9   760.8    0.00 
  18    8:30   0.34   36.3    14   14.8     1    18.3   760.8    0.00 
  18    8:40   0.37   36.3    16   15.2     6    18.2   760.8    0.00 
  18    8:50   0.40   36.1    17   15.9    17    20.3   760.8    0.00 
  18    9:00   0.42   38.0    14   17.3    18    20.5   760.8    0.00 
  18    9:10   0.45   37.7    14   14.7     9    20.0   760.8    0.00 
  18    9:20   0.48   37.2    16   15.7    11    21.7   761.0    0.00 
  18    9:30   0.50   37.1    15   17.5    18    22.0   761.0    0.00 
  18    9:40   0.53   38.0    14   16.4    18    22.2   761.1    0.00 
  18    9:50   0.55   38.3    15   16.5    17    22.4   761.1    0.00 
  18   10:00   0.57   39.7    14   14.0    15    17.5   761.0    0.00 
  18   10:10   0.59   39.1    15   12.5     2    19.1   761.1    0.00 
  18   10:20   0.59   36.9    18   14.0     5    20.5   761.0    0.00 
  18   10:30   0.61   35.9    22   16.4    12    22.3   761.0    0.00 
  18   10:40   0.62   35.1    22   17.3    14    23.9   760.7    0.00 
  18   10:50   0.63   35.9    22   14.9    15    23.2   760.5    0.00 
  18   11:00   0.63   36.1    22   17.2    10    24.6   760.2    0.00 
  18   11:10   0.63   36.6    23   16.0    14    25.3   760.0    0.00 
  18   11:20   0.65   37.1    22   16.2    14    22.5   759.9    0.00 
  18   11:30   0.65   37.4    22   14.8     3    20.4   759.7    0.00 
  18   11:40   0.57   36.8    23   14.6   360    21.3   759.5    0.00 
  18   11:50   0.52   36.3    23   16.7   355    21.0   759.3    0.00 
  18   12:00   0.51   36.4    25   15.2   348    21.6   759.0    0.00 
  18   12:10   0.64   36.8    25   12.9   359    23.1   759.0    0.00 
  18   12:20   0.61   36.9    27   14.1   354    21.3   758.9    0.00 
  18   12:30   0.60   36.0    29   14.9   342    21.3   758.7    0.00 
  18   12:40   0.60   36.3    31   14.3   340    18.7   758.6    0.00 
  18   12:50   0.53   35.8    33   13.7   330    20.7   758.5    0.00 
  18   13:00   0.46   34.6    35   16.9   324    22.4   758.0    0.00 
  18   13:10   0.34   33.7    35   21.1   323    27.2   757.6    0.00 
  18   13:20   0.35   34.1    34   18.6   324    27.6   757.5    0.00 
  18   13:30   0.29   33.7    36   13.2   322    18.6   757.3    0.00 
  18   13:40   0.27   33.4    35   13.8   322    20.3   757.2    0.00 
  18   13:50   0.30   33.8    36   13.0   328    18.7   757.2    0.00 
  18   14:00   0.23   32.9    34   12.9   320    19.9   756.9    0.00 
  18   14:10   0.21   33.3    31   10.3   325    16.4   756.9    0.00 
  18   14:20   0.24   33.6    30   10.0   312    15.4   756.7    0.00 
  18   14:30   0.26   34.0    30    7.4   320    15.5   756.5    0.00 
  18   14:40   0.26   34.4    36    5.1   327    10.4   756.4    0.00 
  18   14:50   0.23   35.0    38    3.7   337     6.4   756.6    0.00 
  18   15:00   0.18   34.2    40    2.6   340     5.6   756.6    0.00 
  18   15:10   0.14   33.4    44    1.5    43     3.5   756.7    0.00 
  18   15:20   0.11   33.2    46    1.7     9     4.2   756.9    0.00 
  18   15:30   0.09   33.3    45    3.1     5     6.1   757.1    0.00 
  18   15:40   0.09   32.7    45    4.0    14     7.5   757.2    0.00 
  18   15:50   0.09   32.3    45    3.5    34     7.3   757.1    0.00 
  18   16:00   0.07   32.0    48    5.7    46     8.6   757.1    0.00 
  18   16:10   0.05   31.3    48    6.8    61     9.9   757.1    0.00 
  18   16:20   0.04   30.7    50    8.2    62    11.2   757.0    0.00 
  18   16:30   0.03   30.0    52    8.1    68    11.4   757.0    0.00 
  18   16:40   0.01   29.8    54    9.5    62    13.3   757.0    0.00 
  18   16:50   0.00   29.6    54    9.3    57    12.4   757.0    0.00 
  18   17:00   0.00   29.2    55    7.4    51     9.6   756.9    0.00 
  18   17:10   0.00   28.8    56    7.9    42    10.2   756.9    0.00 
  18   17:20   0.00   28.5    55    5.6    34     9.4   756.8    0.00 
  18   17:30   0.00   28.4    54    7.5    34    11.0   756.8    0.00 
  18   17:40   0.00   28.1    57    8.3    18    11.6   756.8    0.00 
  18   17:50   0.00   27.4    58    7.6     4    11.1   756.8    0.00 
  18   18:00   0.00   26.9    61    8.2   335    10.7   756.8    0.00 

Return to Tikaboo Peak graphs page.


Western Regional Climate Center,wrcc@dri.edu